Terminal Aerodrome Forecast
Issued by NWS Sterling, VA

Current Version | Previous Version | Text Only | Print | Product List | Glossary Off
Versions: 1 2 3 4 5 6 7 8 9 10 11 12 13 14 15 16 17 18 19 20 21

000
FTUS41 KLWX 211100
TAFMRB
TAF
KMRB 211140Z 2112/2212 14004KT 5SM BR SCT015 OVC050
     FM211400 16008KT P6SM FEW025 BKN050
     FM220100 15004KT P6SM BKN250
     FM220800 00000KT P6SM BKN090=

USA.gov is the U.S. government's official web portal to all federal, state and local government web resources and services.